aviador You're here:

CYMH Decoded Metar

MARY'S HARBOUR in NL, CANADA
Report Time2018-01-18 09:00:00
UTC Time2018-01-18 10:09:12
Flight Rules Old
Wind220° at 05 kt
W.Decomp.*RWY 29: 3.5 kt HW 3.6 kt LCW
W.Rank220° ranks 2
Current wind is below 220° avg. (9.5)
Visibility9999 m
Phenomena:N/A
Clouds:N/A
Expected CloudBase > 1,200 ft AGL from Temp-Dew spread
CeilingNone
Temp-13°C (ISA -28)
Dew Point-16°C (78% RH)
AAT-18.2°C
QNH1016 hPa
Density Alt-3,563 ft
Elevation36 ft
Report Wrong Elevation
Raw Report
CYMH 180900Z AUTO 22005KT 9SM CLR M13/M16 A3000 RMK SLP163=

Extra information for CYMH:More info

Metar Taf Metar & Taf Last 4 Metars F.Rules Stats Wind Profile Meteogram Temp Stats Airport Information Weather charts Add Link Nearby VenuesMetar ALERT Operation Metar Decoded Social comments